Grosse Isle, Canada
Current Conditions -  °F | °C
As of 11:00 AM on Thursday 27 Nov 2014 (Local Time) from CYWG Reporting Station
Scattered Clouds Scattered Clouds  
Wind Chill: -21°   Ceiling: Unl
Heat Index: -2°   Visibility: 15mi
Dew Point: -9°   Wind: 14mph
Humidity: 71%   Direction: 180°S
Pressure: 30.41"   Gusts: NA
Location:  50.06°N, 97.44°W
Report Text: CYWG 271700Z 18012KT 15SM SCT230 M19/M23 A3041 RMK CI3 CONTRAILS SLP329
Loading
Personal Weather Stations






























Interactive Weather Map New forecast layout! Learn more

10-Day Weather Forecast

Advertisements
Track Severe Weather on mobile